Time;durP1;ratioP1;P1;durP2;ratioP2;P2;SDS_P1;SDS_P2;PMS_P1;PMS_P2;Temp;Humidity;BMP_temperature;BMP_pressure;BME280_temperature;BME280_humidity;BME280_pressure;Samples;Min_cycle;Max_cycle;Signal;HPM_P1;HPM_P2
2022/09/07 00:02:07;;;;;;;18.75;12.73;;;18.20;1.00;;;;;;5054500;28;20044;-75
2022/09/07 00:04:33;;;;;;;19.92;14.35;;;18.20;1.00;;;;;;5054352;28;20626;-75
2022/09/07 00:06:58;;;;;;;18.30;12.90;;;18.20;1.00;;;;;;5054482;28;20025;-75
2022/09/07 00:09:24;;;;;;;20.80;13.48;;;18.20;1.00;;;;;;5054512;28;20368;-75
2022/09/07 00:11:49;;;;;;;19.20;12.05;;;18.20;1.00;;;;;;5054317;28;20029;-75
2022/09/07 00:14:15;;;;;;;20.23;13.32;;;18.20;1.00;;;;;;5054327;28;20029;-75
2022/09/07 00:16:41;;;;;;;17.48;10.00;;;18.20;1.00;;;;;;5054147;28;20083;-75
2022/09/07 00:19:07;;;;;;;9.63;4.47;;;18.20;1.00;;;;;;5054474;28;20456;-75
2022/09/07 00:21:32;;;;;;;9.65;2.13;;;18.10;1.00;;;;;;5036050;28;20028;-75
2022/09/07 00:23:58;;;;;;;4.72;1.83;;;18.00;1.00;;;;;;5039072;28;20029;-74
2022/09/07 00:26:28;;;;;;;2.85;1.60;;;18.00;1.00;;;;;;5034210;28;20073;-75
2022/09/07 00:29:00;;;;;;;4.90;1.33;;;17.80;1.00;;;;;;5034164;28;20033;-75
2022/09/07 00:34:00;;;;;;;3.97;1.60;;;17.80;1.00;;;;;;5047122;28;20153;-76
2022/09/07 00:36:26;;;;;;;7.15;1.60;;;17.70;1.00;;;;;;5049370;28;20481;-76
2022/09/07 00:38:53;;;;;;;3.88;1.70;;;17.60;1.00;;;;;;5034416;28;20033;-76
2022/09/07 00:41:21;;;;;;;6.15;1.50;;;17.60;1.00;;;;;;5044749;28;20025;-76
2022/09/07 00:43:49;;;;;;;6.75;1.83;;;17.60;1.00;;;;;;5053694;28;20380;-76
2022/09/07 00:46:17;;;;;;;4.72;1.65;;;17.60;1.00;;;;;;5053993;28;20025;-76
2022/09/07 00:48:56;;;;;;;2.75;1.20;;;17.50;1.00;;;;;;5054015;28;20043;-76
2022/09/07 00:51:33;;;;;;;6.45;2.30;;;17.50;1.00;;;;;;5053832;28;20070;-76
2022/09/07 00:54:04;;;;;;;4.85;1.52;;;17.50;1.00;;;;;;5053868;28;20032;-76
2022/09/07 00:56:35;;;;;;;5.63;1.58;;;17.50;1.00;;;;;;5053779;28;20018;-76
2022/09/07 00:59:01;;;;;;;4.32;2.00;;;17.60;1.00;;;;;;5053647;28;20032;-76
2022/09/07 01:01:26;;;;;;;7.22;1.75;;;17.50;1.00;;;;;;5053751;28;20104;-76
2022/09/07 01:03:56;;;;;;;6.57;1.75;;;17.50;1.00;;;;;;5053715;28;20082;-76
2022/09/07 01:06:34;;;;;;;7.13;1.87;;;17.40;1.00;;;;;;5053677;28;20187;-76
2022/09/07 01:09:05;;;;;;;8.23;2.03;;;17.40;1.00;;;;;;5035668;28;20025;-75
2022/09/07 01:11:33;;;;;;;6.50;1.90;;;17.40;1.00;;;;;;5053876;28;20032;-76
2022/09/07 01:14:01;;;;;;;7.55;1.70;;;17.30;1.00;;;;;;5035674;28;20032;-76
2022/09/07 01:16:53;;;;;;;7.07;1.60;;;17.40;1.00;;;;;;5053474;28;20028;-76
2022/09/07 01:20:03;;;;;;;4.95;1.80;;;17.30;1.00;;;;;;5053794;28;20092;-76
2022/09/07 01:22:41;;;;;;;;;;;17.30;1.00;;;;;;5015646;28;20037;-76
2022/09/07 01:25:32;;;;;;;7.43;1.58;;;17.30;1.00;;;;;;5053341;28;20314;-76
2022/09/07 01:28:04;;;;;;;5.55;1.85;;;17.20;1.00;;;;;;5053427;28;20037;-76
2022/09/07 01:30:34;;;;;;;5.82;2.15;;;17.20;1.00;;;;;;5053634;28;20025;-76
2022/09/07 01:33:15;;;;;;;7.45;1.85;;;17.20;1.00;;;;;;5021526;28;20144;-76
2022/09/07 01:36:04;;;;;;;9.65;2.00;;;17.10;1.00;;;;;;5033601;28;20104;-75
2022/09/07 01:38:42;;;;;;;10.00;2.05;;;17.00;1.00;;;;;;5015591;28;20534;-76
2022/09/07 01:41:17;;;;;;;3.42;1.92;;;17.00;1.90;;;;;;5027147;28;20120;-76
2022/09/07 01:43:49;;;;;;;5.53;1.77;;;16.90;1.00;;;;;;5030339;28;20030;-75
2022/09/07 01:46:22;;;;;;;5.45;1.80;;;17.00;1.00;;;;;;5013327;28;20030;-76
2022/09/07 01:48:51;;;;;;;9.43;1.77;;;17.00;1.00;;;;;;5033018;28;20017;-75
2022/09/07 01:51:20;;;;;;;5.75;1.70;;;17.00;1.00;;;;;;5032951;28;20032;-75
2022/09/07 01:53:55;;;;;;;8.35;2.22;;;17.10;2.40;;;;;;5033377;28;20148;-75
2022/09/07 01:56:43;;;;;;;5.28;1.70;;;17.10;11.70;;;;;;5032749;28;20068;-75
2022/09/07 01:59:27;;;;;;;4.25;1.90;;;17.10;4.30;;;;;;5025635;28;20104;-75
2022/09/07 02:02:13;;;;;;;4.25;1.83;;;17.10;9.70;;;;;;5032423;28;20337;-75
2022/09/07 02:04:44;;;;;;;4.53;2.30;;;17.10;1.00;;;;;;5032456;28;20090;-75
2022/09/07 02:07:41;;;;;;;6.53;2.20;;;17.20;1.00;;;;;;5032233;28;20101;-75
2022/09/07 02:10:11;;;;;;;6.10;2.10;;;17.10;1.00;;;;;;5024442;28;20029;-75
2022/09/07 02:12:52;;;;;;;9.38;2.47;;;17.10;1.00;;;;;;5032422;28;20029;-75
2022/09/07 02:15:30;;;;;;;6.22;2.35;;;17.10;1.00;;;;;;5032246;28;20018;-76
2022/09/07 02:18:03;;;;;;;5.25;2.20;;;17.10;1.00;;;;;;5032254;28;20033;-75
2022/09/07 02:20:33;;;;;;;7.25;2.00;;;17.10;1.00;;;;;;5032570;28;20171;-75
2022/09/07 02:23:03;;;;;;;6.97;2.28;;;17.00;1.00;;;;;;5032300;28;20388;-75
2022/09/07 02:25:36;;;;;;;;;;;17.00;1.00;;;;;;5032448;28;20038;-75
2022/09/07 02:28:12;;;;;;;7.60;2.13;;;17.00;1.00;;;;;;5032282;28;20071;-76
2022/09/07 02:30:38;;;;;;;4.40;2.20;;;17.00;1.00;;;;;;5032207;28;20072;-76
2022/09/07 02:33:04;;;;;;;5.97;2.42;;;16.90;1.00;;;;;;5031427;28;20143;-76
2022/09/07 02:35:31;;;;;;;5.32;2.50;;;16.80;1.00;;;;;;5032054;28;20022;-76
2022/09/07 02:37:58;;;;;;;6.30;2.08;;;16.90;7.20;;;;;;5032042;28;20033;-76
2022/09/07 02:40:24;;;;;;;7.05;2.10;;;16.90;13.20;;;;;;5031305;28;20013;-76
2022/09/07 02:42:50;;;;;;;6.10;2.33;;;16.80;14.20;;;;;;5023065;28;20040;-75
2022/09/07 02:45:16;;;;;;;11.90;2.72;;;16.80;18.30;;;;;;5019763;28;20452;-76
2022/09/07 02:47:57;;;;;;;4.40;1.98;;;16.80;10.40;;;;;;5024137;28;20033;-75
2022/09/07 02:50:33;;;;;;;9.05;2.47;;;16.80;1.00;;;;;;5031736;28;20547;-76
2022/09/07 02:53:42;;;;;;;4.13;2.10;;;16.80;1.00;;;;;;5032115;28;20013;-76
2022/09/07 02:56:30;;;;;;;5.10;2.00;;;16.80;1.00;;;;;;5032031;28;20013;-76
2022/09/07 02:59:33;;;;;;;3.83;1.80;;;16.80;1.00;;;;;;5031153;28;20368;-75
2022/09/07 03:02:10;;;;;;;7.25;2.22;;;16.80;1.00;;;;;;5023779;28;20057;-76
2022/09/07 03:05:13;;;;;;;5.63;2.15;;;16.80;1.00;;;;;;5012040;28;20049;-76
2022/09/07 03:07:45;;;;;;;3.10;2.13;;;16.80;1.00;;;;;;5031313;28;20030;-76
2022/09/07 03:10:12;;;;;;;7.72;2.50;;;16.80;1.00;;;;;;5031916;28;20379;-76
2022/09/07 03:12:44;;;;;;;3.03;1.85;;;16.80;1.00;;;;;;5013834;28;20029;-76
2022/09/07 03:15:11;;;;;;;8.35;2.28;;;17.00;1.00;;;;;;5031944;28;20021;-76
2022/09/07 03:17:37;;;;;;;6.78;2.20;;;16.80;1.00;;;;;;5031745;28;20028;-76
2022/09/07 03:20:03;;;;;;;9.45;2.92;;;16.80;1.00;;;;;;5031689;28;20026;-76
2022/09/07 03:22:31;;;;;;;7.22;2.30;;;16.80;1.00;;;;;;5031682;28;20056;-76
2022/09/07 03:24:57;;;;;;;5.95;2.50;;;16.90;1.00;;;;;;5031966;28;20486;-76
2022/09/07 03:27:22;;;;;;;9.48;2.83;;;16.90;1.00;;;;;;5013775;28;20108;-76
2022/09/07 03:29:48;;;;;;;4.43;2.45;;;17.00;11.90;;;;;;5032053;28;20147;-76
2022/09/07 03:32:13;;;;;;;12.48;3.47;;;16.90;14.90;;;;;;5031425;28;20065;-76
2022/09/07 03:34:39;;;;;;;9.40;2.90;;;16.90;16.60;;;;;;5031661;28;20022;-76
2022/09/07 03:37:04;;;;;;;5.53;2.70;;;16.80;22.40;;;;;;5031628;28;20029;-76
2022/09/07 03:39:30;;;;;;;6.97;2.70;;;16.80;25.40;;;;;;5031012;28;20029;-76
2022/09/07 03:41:56;;;;;;;7.07;2.80;;;16.80;34.70;;;;;;5023635;28;20030;-75
2022/09/07 03:44:21;;;;;;;4.70;2.88;;;16.80;37.80;;;;;;5028453;28;20095;-76
2022/09/07 03:46:47;;;;;;;7.47;2.80;;;16.80;38.10;;;;;;5031286;28;20034;-76
2022/09/07 03:49:14;;;;;;;8.70;3.22;;;16.70;43.90;;;;;;5031153;28;20025;-76
2022/09/07 03:51:40;;;;;;;7.70;2.75;;;16.80;48.60;;;;;;5031044;28;20022;-75
2022/09/07 03:54:05;;;;;;;6.68;2.92;;;16.80;60.00;;;;;;5031039;28;20022;-75
2022/09/07 03:56:31;;;;;;;7.05;2.92;;;16.70;56.60;;;;;;5031192;28;20018;-75
2022/09/07 03:58:57;;;;;;;8.90;2.72;;;16.70;57.40;;;;;;5031240;28;20025;-75
2022/09/07 04:01:24;;;;;;;7.95;3.15;;;16.70;56.90;;;;;;5031267;28;20025;-75
2022/09/07 04:03:51;;;;;;;11.55;3.03;;;16.80;54.40;;;;;;5030699;28;20033;-75
2022/09/07 04:06:17;;;;;;;7.13;2.72;;;16.70;20.60;;;;;;5034032;28;20469;-75
2022/09/07 04:08:43;;;;;;;5.85;2.50;;;16.70;9.60;;;;;;5030822;28;20049;-75
2022/09/07 04:11:12;;;;;;;7.07;2.95;;;16.70;1.00;;;;;;5015174;28;20049;-75
2022/09/07 04:13:38;;;;;;;5.93;2.80;;;16.70;16.80;;;;;;4997358;28;20022;-76
2022/09/07 04:16:20;;;;;;;6.25;3.28;;;16.70;11.50;;;;;;5034522;28;20383;-76
2022/09/07 04:18:48;;;;;;;8.70;3.13;;;16.70;24.00;;;;;;5034410;28;20025;-76
2022/09/07 04:21:14;;;;;;;4.20;2.88;;;16.70;30.90;;;;;;5034449;28;20018;-75
2022/09/07 04:23:41;;;;;;;8.13;2.95;;;16.70;18.60;;;;;;5034435;28;20033;-75
2022/09/07 04:26:13;;;;;;;6.28;2.70;;;16.70;9.30;;;;;;5034169;28;20041;-75
2022/09/07 04:28:38;;;;;;;5.13;2.67;;;16.70;1.80;;;;;;5034249;28;20025;-76
2022/09/07 04:31:04;;;;;;;7.43;3.25;;;16.70;11.50;;;;;;5034125;28;20032;-76
2022/09/07 04:33:31;;;;;;;5.55;2.92;;;16.70;7.90;;;;;;5034604;28;20050;-75
2022/09/07 04:35:59;;;;;;;6.68;2.95;;;16.70;26.90;;;;;;5034135;28;20029;-75
2022/09/07 04:38:25;;;;;;;7.50;3.20;;;16.60;5.80;;;;;;5016399;28;20021;-76
2022/09/07 04:41:01;;;;;;;7.32;3.45;;;16.70;1.00;;;;;;5014011;28;20029;-76
2022/09/07 04:43:28;;;;;;;7.75;3.33;;;16.60;1.00;;;;;;5033865;28;20128;-75
2022/09/07 04:45:54;;;;;;;6.60;3.38;;;16.60;1.00;;;;;;5033644;28;20194;-75
2022/09/07 04:48:20;;;;;;;7.18;3.47;;;16.60;4.10;;;;;;5031426;28;20133;-75
2022/09/07 04:50:45;;;;;;;6.68;3.15;;;16.70;21.90;;;;;;5013926;28;20034;-75
2022/09/07 04:53:11;;;;;;;4.95;3.38;;;16.60;16.90;;;;;;5013748;28;20022;-75
2022/09/07 04:55:36;;;;;;;6.40;3.50;;;16.60;29.40;;;;;;5012464;28;20596;-75
2022/09/07 04:58:02;;;;;;;6.20;3.55;;;16.60;40.20;;;;;;5025459;28;20030;-75
2022/09/07 05:00:28;;;;;;;6.90;3.60;;;16.50;32.50;;;;;;5033322;28;20021;-75
2022/09/07 05:02:53;;;;;;;6.78;3.63;;;16.50;38.50;;;;;;5015700;28;20028;-76
2022/09/07 05:05:19;;;;;;;5.80;3.47;;;16.60;52.50;;;;;;5033207;28;20040;-75
2022/09/07 05:07:44;;;;;;;7.15;3.72;;;16.60;52.50;;;;;;5033104;28;20464;-75
2022/09/07 05:10:10;;;;;;;6.45;3.80;;;16.60;58.50;;;;;;5033090;28;20096;-74
2022/09/07 05:12:36;;;;;;;5.63;3.83;;;16.60;55.50;;;;;;5033375;28;20028;-75
2022/09/07 05:15:01;;;;;;;7.28;3.70;;;16.60;53.30;;;;;;5033216;28;20037;-75
2022/09/07 05:17:29;;;;;;;7.03;3.90;;;16.60;37.20;;;;;;5032819;28;20022;-75
2022/09/07 05:19:55;;;;;;;5.55;4.35;;;16.60;30.90;;;;;;5033467;28;20031;-75
2022/09/07 05:22:21;;;;;;;7.50;4.15;;;16.60;31.10;;;;;;5033301;28;20041;-77
2022/09/07 05:24:47;;;;;;;7.40;4.38;;;16.60;24.60;;;;;;5017247;28;20079;-77
2022/09/07 05:27:12;;;;;;;7.13;4.40;;;16.50;26.10;;;;;;5034084;28;20712;-78
2022/09/07 05:29:38;;;;;;;5.85;4.20;;;16.40;30.40;;;;;;5034283;28;20030;-79
2022/09/07 05:32:03;;;;;;;5.35;3.90;;;16.50;44.00;;;;;;5034411;28;20101;-78
2022/09/07 05:34:29;;;;;;;7.00;3.95;;;16.50;32.70;;;;;;5034357;28;20021;-78
2022/09/07 05:36:55;;;;;;;6.97;4.28;;;16.60;11.10;;;;;;5015962;28;20443;-78
2022/09/07 05:39:20;;;;;;;8.13;3.65;;;16.70;1.00;;;;;;5014651;28;20014;-78
2022/09/07 05:41:46;;;;;;;7.82;4.10;;;16.70;1.00;;;;;;5014384;28;20022;-78
2022/09/07 05:44:13;;;;;;;7.97;3.85;;;16.80;1.00;;;;;;5015798;28;20022;-78
2022/09/07 05:46:39;;;;;;;8.13;3.85;;;16.90;1.00;;;;;;5016399;28;20024;-78
2022/09/07 05:49:06;;;;;;;6.13;4.38;;;17.00;1.00;;;;;;5034260;28;20025;-79
2022/09/07 05:51:32;;;;;;;7.15;3.88;;;17.10;1.00;;;;;;5034070;28;20071;-79
2022/09/07 05:53:58;;;;;;;8.10;4.10;;;17.20;1.00;;;;;;5034061;28;20021;-78
2022/09/07 05:56:24;;;;;;;6.30;3.90;;;17.30;1.00;;;;;;5033331;28;20017;-78
2022/09/07 05:58:50;;;;;;;5.72;4.07;;;17.60;1.00;;;;;;5015633;28;20060;-79
2022/09/07 06:01:16;;;;;;;7.22;4.43;;;17.60;1.00;;;;;;5033370;28;20119;-78
2022/09/07 06:03:43;;;;;;;8.32;4.22;;;17.50;1.00;;;;;;5033280;28;20472;-78
2022/09/07 06:06:11;;;;;;;7.88;4.30;;;17.40;1.00;;;;;;5033761;28;20464;-77
2022/09/07 06:08:42;;;;;;;6.03;4.15;;;17.40;1.00;;;;;;5032578;28;20724;-76
2022/09/07 06:11:10;;;;;;;8.50;4.07;;;17.30;1.00;;;;;;5032627;28;20025;-76
2022/09/07 06:13:37;;;;;;;7.93;4.20;;;17.30;1.00;;;;;;5014509;28;20021;-77
2022/09/07 06:16:05;;;;;;;8.88;3.88;;;17.40;1.00;;;;;;5032752;28;20022;-77
2022/09/07 06:18:39;;;;;;;5.82;3.75;;;17.40;1.00;;;;;;5014760;28;20021;-77
2022/09/07 06:21:12;;;;;;;6.30;3.88;;;17.80;99.90;;;;;;5012329;28;20540;-77
2022/09/07 06:23:40;;;;;;;5.50;4.03;;;18.00;99.90;;;;;;5012798;28;20037;-76
2022/09/07 06:26:07;;;;;;;7.13;4.03;;;18.10;99.90;;;;;;5012330;28;20072;-76
2022/09/07 06:28:35;;;;;;;7.60;2.78;;;18.40;99.90;;;;;;5011520;28;20033;-76
2022/09/07 06:31:02;;;;;;;4.05;2.83;;;18.60;99.90;;;;;;4999564;28;20113;-76
2022/09/07 06:33:27;;;;;;;6.68;4.18;;;18.90;99.90;;;;;;5031742;28;20062;-76
2022/09/07 06:35:59;;;;;;;5.20;4.38;;;19.00;99.90;;;;;;5032107;28;20029;-76
2022/09/07 06:38:28;;;;;;;6.10;3.83;;;18.90;99.90;;;;;;5032011;28;20096;-76
2022/09/07 06:40:53;;;;;;;8.45;4.47;;;19.30;99.90;;;;;;5032049;28;20120;-76
2022/09/07 06:43:19;;;;;;;5.45;3.78;;;19.20;99.90;;;;;;5031768;28;20108;-76
2022/09/07 06:45:52;;;;;;;5.75;3.63;;;19.50;99.90;;;;;;5013811;28;20064;-76
2022/09/07 06:48:17;;;;;;;5.68;3.30;;;19.60;99.90;;;;;;5031554;28;20018;-76
2022/09/07 06:50:43;;;;;;;3.97;3.58;;;20.40;99.90;;;;;;5016348;28;20369;-76
2022/09/07 06:53:08;;;;;;;4.78;3.42;;;24.80;99.90;;;;;;5012002;28;20034;-76
2022/09/07 06:55:42;;;;;;;5.03;3.47;;;25.60;99.90;;;;;;5027232;28;20021;-76
2022/09/07 06:58:07;;;;;;;6.43;3.72;;;24.90;99.90;;;;;;5029671;28;20036;-76
2022/09/07 07:00:33;;;;;;;7.05;4.25;;;22.50;99.90;;;;;;5031248;28;20021;-76
2022/09/07 07:02:59;;;;;;;4.88;4.30;;;21.80;99.90;;;;;;5031050;28;20022;-76
2022/09/07 07:05:25;;;;;;;6.32;4.35;;;22.30;99.90;;;;;;5030923;28;20026;-76
2022/09/07 07:07:50;;;;;;;5.82;3.85;;;27.40;99.90;;;;;;5031422;28;20084;-76
2022/09/07 07:10:16;;;;;;;6.05;4.35;;;27.30;99.90;;;;;;5031441;28;20092;-76
2022/09/07 07:12:41;;;;;;;5.53;3.47;;;27.40;99.90;;;;;;5031458;28;20112;-76
2022/09/07 07:15:07;;;;;;;6.13;4.00;;;28.40;99.90;;;;;;5031297;28;20036;-76
2022/09/07 07:17:33;;;;;;;7.63;4.07;;;28.20;99.90;;;;;;5031563;28;20030;-76
2022/09/07 07:19:58;;;;;;;6.00;3.95;;;27.70;99.90;;;;;;5031700;28;20030;-76
2022/09/07 07:22:24;;;;;;;6.80;3.55;;;30.40;99.90;;;;;;5031545;28;20468;-77
2022/09/07 07:24:50;;;;;;;6.72;3.45;;;28.50;99.90;;;;;;5014038;28;20026;-77
2022/09/07 07:27:16;;;;;;;7.05;4.03;;;30.00;99.90;;;;;;5031718;28;20029;-76
2022/09/07 07:29:42;;;;;;;4.68;4.15;;;35.10;99.90;;;;;;5031258;28;20096;-77
2022/09/07 07:32:07;;;;;;;5.22;4.00;;;34.80;99.90;;;;;;5031575;28;20172;-77
2022/09/07 07:34:52;;;;;;;5.80;4.00;;;31.70;99.90;;;;;;5031294;28;20072;-77
2022/09/07 07:37:18;;;;;;;5.65;4.13;;;29.90;99.90;;;;;;5031276;28;20025;-77
2022/09/07 07:39:43;;;;;;;6.15;4.45;;;29.90;99.90;;;;;;5032206;28;20041;-77
2022/09/07 07:42:11;;;;;;;5.82;4.95;;;27.90;99.90;;;;;;5034933;28;20021;-77
2022/09/07 07:44:36;;;;;;;8.43;5.28;;;27.80;99.90;;;;;;5035544;28;20025;-77
2022/09/07 07:47:02;;;;;;;7.03;5.50;;;27.30;99.90;;;;;;5035064;28;20029;-77
2022/09/07 07:49:27;;;;;;;6.43;5.07;;;29.40;99.90;;;;;;5034878;28;20044;-76
2022/09/07 07:51:54;;;;;;;8.43;5.13;;;30.90;99.90;;;;;;5034757;28;20022;-76
2022/09/07 07:54:20;;;;;;;8.48;6.53;;;30.60;99.90;;;;;;5034717;28;20018;-75
2022/09/07 07:56:45;;;;;;;7.25;5.90;;;31.70;99.90;;;;;;5034574;28;20483;-73
2022/09/07 07:59:11;;;;;;;6.75;6.10;;;33.60;99.90;;;;;;5034674;28;20029;-75
2022/09/07 08:01:36;;;;;;;8.18;6.43;;;34.90;99.90;;;;;;5034789;28;20032;-76
2022/09/07 08:04:02;;;;;;;8.07;6.93;;;35.20;99.90;;;;;;5034286;28;20059;-74
2022/09/07 08:06:28;;;;;;;7.63;6.40;;;32.30;99.90;;;;;;5034911;28;20061;-74
2022/09/07 08:08:54;;;;;;;6.80;6.20;;;30.50;99.90;;;;;;5034569;28;20032;-74
2022/09/07 08:11:21;;;;;;;7.25;6.32;;;31.80;99.90;;;;;;5034582;28;20028;-74
2022/09/07 08:13:48;;;;;;;6.15;5.65;;;30.70;99.90;;;;;;5034166;28;20044;-74
2022/09/07 08:16:15;;;;;;;6.20;5.53;;;30.30;99.90;;;;;;5034478;28;20036;-74
2022/09/07 08:18:40;;;;;;;5.78;5.28;;;34.60;99.90;;;;;;5034176;28;20056;-74
2022/09/07 08:21:12;;;;;;;7.80;5.57;;;35.30;99.90;;;;;;5034352;28;20056;-74
2022/09/07 08:23:38;;;;;;;6.07;5.30;;;35.80;99.90;;;;;;5034111;28;20025;-75
2022/09/07 08:26:05;;;;;;;6.05;5.45;;;36.60;99.90;;;;;;5034166;28;20430;-74
2022/09/07 08:28:34;;;;;;;6.55;4.25;;;37.60;99.90;;;;;;5034258;28;20025;-74
2022/09/07 08:31:07;;;;;;;4.80;4.30;;;38.30;99.90;;;;;;5034086;28;20032;-74
2022/09/07 08:33:37;;;;;;;4.50;4.10;;;39.50;99.90;;;;;;5033631;28;20108;-74
2022/09/07 08:36:09;;;;;;;3.90;3.50;;;38.00;99.90;;;;;;5016356;28;20529;-74
2022/09/07 08:38:36;;;;;;;5.05;3.40;;;37.50;99.90;;;;;;5033757;28;20032;-74
2022/09/07 08:41:17;;;;;;;3.60;3.30;;;37.40;99.40;;;;;;5034111;28;20029;-75
2022/09/07 08:43:45;;;;;;;3.97;3.35;;;38.50;99.90;;;;;;5033973;28;20389;-75
2022/09/07 08:46:32;;;;;;;4.40;3.35;;;38.70;97.40;;;;;;5033687;28;20037;-75
2022/09/07 08:49:00;;;;;;;3.53;2.97;;;39.10;96.10;;;;;;5033831;28;20075;-75
2022/09/07 08:52:10;;;;;;;4.88;3.20;;;40.20;93.80;;;;;;5032935;28;20100;-75
2022/09/07 08:54:38;;;;;;;2.47;2.28;;;40.20;92.90;;;;;;5028448;28;20037;-75
2022/09/07 08:57:04;;;;;;;3.05;2.63;;;39.00;92.20;;;;;;5033809;28;20471;-75
2022/09/07 08:59:39;;;;;;;2.50;2.30;;;38.80;91.10;;;;;;5033652;28;20096;-75
2022/09/07 09:02:13;;;;;;;2.00;1.80;;;41.10;90.60;;;;;;5033614;28;20018;-75
2022/09/07 09:04:39;;;;;;;3.17;1.90;;;42.00;84.70;;;;;;5033544;28;20032;-74
2022/09/07 09:07:24;;;;;;;2.50;1.65;;;43.00;77.50;;;;;;5033498;28;20037;-75
2022/09/07 09:10:26;;;;;;;2.05;1.63;;;42.60;72.30;;;;;;5034009;28;20645;-75
2022/09/07 09:13:16;;;;;;;2.65;1.60;;;43.50;72.70;;;;;;5003419;28;20094;-75
2022/09/07 09:15:51;;;;;;;3.00;1.88;;;43.80;65.00;;;;;;5015355;28;20461;-74
2022/09/07 09:18:43;;;;;;;3.40;1.60;;;43.80;61.70;;;;;;5032840;28;20049;-74
2022/09/07 09:21:17;;;;;;;2.15;1.40;;;44.00;63.50;;;;;;5013164;28;20084;-74
2022/09/07 09:23:47;;;;;;;2.25;1.50;;;44.80;57.60;;;;;;5013000;28;20077;-74
2022/09/07 09:26:22;;;;;;;1.77;1.55;;;45.80;53.40;;;;;;5013260;28;20034;-74
2022/09/07 09:28:47;;;;;;;1.98;1.58;;;44.30;52.20;;;;;;5013067;28;20752;-74
2022/09/07 09:31:18;;;;;;;1.92;1.58;;;43.70;52.60;;;;;;5012997;28;20098;-74
2022/09/07 09:34:04;;;;;;;1.65;1.50;;;44.60;50.60;;;;;;5012951;28;20078;-74
2022/09/07 09:36:33;;;;;;;2.53;1.35;;;44.90;46.50;;;;;;5012988;28;20025;-74
2022/09/07 09:39:00;;;;;;;2.85;1.35;;;44.10;47.10;;;;;;5013046;28;20064;-74
2022/09/07 09:41:35;;;;;;;2.20;1.45;;;43.20;47.00;;;;;;5014537;28;20404;-74
2022/09/07 09:44:02;;;;;;;1.85;1.25;;;44.80;46.90;;;;;;5013114;28;20026;-75
2022/09/07 09:46:36;;;;;;;3.63;1.40;;;45.20;43.30;;;;;;5027773;28;20036;-75
2022/09/07 09:49:14;;;;;;;1.65;1.15;;;44.70;41.50;;;;;;5032584;28;20599;-75
2022/09/07 09:51:43;;;;;;;1.60;1.33;;;45.00;42.30;;;;;;5032530;28;20017;-75
2022/09/07 09:54:32;;;;;;;1.40;1.23;;;45.40;39.00;;;;;;5032806;28;20034;-75
2022/09/07 09:56:58;;;;;;;1.23;0.85;;;44.90;37.10;;;;;;5026489;28;20029;-74
2022/09/07 09:59:27;;;;;;;2.15;1.13;;;44.00;38.10;;;;;;5028802;28;20047;-76
2022/09/07 10:01:53;;;;;;;0.82;0.82;;;44.50;34.50;;;;;;5032660;28;20045;-76
2022/09/07 10:04:33;;;;;;;2.88;1.30;;;43.50;35.70;;;;;;5032763;28;20049;-76
2022/09/07 10:07:08;;;;;;;1.25;0.88;;;43.90;37.20;;;;;;5033327;28;20028;-74
2022/09/07 10:09:36;;;;;;;1.48;1.10;;;44.70;33.90;;;;;;5032973;28;20021;-76
2022/09/07 10:12:04;;;;;;;2.13;1.05;;;44.00;34.80;;;;;;5032325;28;20607;-75
2022/09/07 10:14:35;;;;;;;1.17;0.90;;;43.80;35.40;;;;;;5014020;28;20037;-75
2022/09/07 10:17:16;;;;;;;1.40;1.30;;;43.20;34.80;;;;;;5031815;28;20037;-75
2022/09/07 10:19:42;;;;;;;1.45;0.90;;;42.60;34.80;;;;;;5022005;28;20033;-75
2022/09/07 10:22:23;;;;;;;2.65;1.10;;;43.00;34.00;;;;;;5023579;28;20025;-79
2022/09/07 10:24:49;;;;;;;3.05;1.13;;;42.80;34.00;;;;;;5016322;28;20549;-79
2022/09/07 10:27:24;;;;;;;1.83;0.93;;;41.20;35.60;;;;;;5033106;28;20111;-75
2022/09/07 10:29:50;;;;;;;1.85;1.17;;;41.20;35.80;;;;;;5030020;28;20049;-76
2022/09/07 10:32:48;;;;;;;1.42;1.10;;;42.00;35.30;;;;;;5008523;28;20062;-76
2022/09/07 10:36:00;;;;;;;1.58;1.08;;;40.00;34.60;;;;;;5024422;28;20045;-76
2022/09/07 10:38:31;;;;;;;1.40;1.10;;;40.00;37.10;;;;;;4932678;29;20118;-76
2022/09/07 10:41:08;;;;;;;2.28;1.20;;;41.30;36.30;;;;;;5023371;28;20037;-76
2022/09/07 10:43:46;;;;;;;1.98;1.02;;;41.00;35.90;;;;;;5033538;28;20035;-76
2022/09/07 10:46:29;;;;;;;1.73;1.15;;;38.20;37.80;;;;;;5032014;28;20647;-76
2022/09/07 10:49:19;;;;;;;2.60;1.40;;;39.30;40.00;;;;;;5032671;28;20500;-76
2022/09/07 10:52:17;;;;;;;1.40;1.30;;;37.10;41.30;;;;;;5032039;28;20435;-76
2022/09/07 10:54:48;;;;;;;2.55;1.73;;;35.90;45.10;;;;;;5032522;28;20018;-76
2022/09/07 10:57:50;;;;;;;3.47;1.40;;;35.30;47.60;;;;;;5032475;28;20108;-76
2022/09/07 11:00:18;;;;;;;3.83;1.30;;;33.40;46.80;;;;;;5032443;28;20052;-76
2022/09/07 11:03:05;;;;;;;1.85;1.60;;;32.80;51.30;;;;;;5023215;28;20112;-76
2022/09/07 11:05:37;;;;;;;3.13;1.27;;;32.30;53.40;;;;;;5012827;28;20030;-76
2022/09/07 11:08:33;;;;;;;1.85;1.40;;;32.30;55.00;;;;;;5013109;28;20026;-76
2022/09/07 11:11:32;;;;;;;2.60;1.58;;;31.80;56.30;;;;;;5021392;28;20352;-76
2022/09/07 11:14:04;;;;;;;1.75;1.65;;;31.40;59.70;;;;;;5012778;28;20062;-76
2022/09/07 11:16:34;;;;;;;2.33;1.63;;;31.80;60.00;;;;;;5015813;28;20053;-76
2022/09/07 11:19:14;;;;;;;2.97;1.70;;;31.60;62.10;;;;;;5016922;28;20028;-76
2022/09/07 11:22:18;;;;;;;2.38;1.88;;;31.50;63.00;;;;;;5016031;28;20033;-76
2022/09/07 11:25:06;;;;;;;2.10;1.92;;;30.60;61.30;;;;;;5018503;28;20071;-76
2022/09/07 11:27:45;;;;;;;3.17;1.73;;;29.90;65.90;;;;;;5016906;28;20026;-76
2022/09/07 11:30:23;;;;;;;2.40;1.70;;;29.70;66.50;;;;;;5021815;28;20021;-76
2022/09/07 11:33:03;;;;;;;3.13;1.63;;;29.70;68.60;;;;;;5031445;28;20038;-76
2022/09/07 11:35:50;;;;;;;1.65;1.55;;;28.90;73.40;;;;;;5019244;28;20035;-77
2022/09/07 11:38:27;;;;;;;3.92;1.95;;;28.90;73.30;;;;;;5017255;28;20054;-77
2022/09/07 11:41:27;;;;;;;1.85;1.60;;;28.90;73.50;;;;;;5019268;28;20029;-77
2022/09/07 11:44:08;;;;;;;2.10;1.60;;;29.10;76.60;;;;;;5017188;28;20037;-77
2022/09/07 11:46:50;;;;;;;2.10;1.90;;;29.10;77.30;;;;;;5021410;28;20307;-77
2022/09/07 11:49:24;;;;;;;3.35;2.30;;;28.70;77.90;;;;;;5017711;28;20033;-77
2022/09/07 11:51:58;;;;;;;2.85;2.65;;;29.20;81.60;;;;;;5026752;28;20021;-77
2022/09/07 11:54:38;;;;;;;2.88;2.67;;;29.30;81.00;;;;;;5036817;28;20049;-77
2022/09/07 11:57:21;;;;;;;4.70;3.33;;;29.00;81.20;;;;;;5022942;28;20022;-76
2022/09/07 12:00:11;;;;;;;5.53;4.28;;;28.60;82.00;;;;;;5024585;28;20061;-75
2022/09/07 12:02:48;;;;;;;4.30;3.72;;;28.30;83.10;;;;;;5030776;28;20025;-75
2022/09/07 12:05:26;;;;;;;4.60;4.25;;;28.40;84.60;;;;;;5018436;28;20102;-76
2022/09/07 12:08:10;;;;;;;5.07;4.60;;;28.50;84.80;;;;;;5041359;28;20480;-76
2022/09/07 12:10:57;;;;;;;5.13;4.72;;;28.50;86.40;;;;;;5043972;28;20132;-76
2022/09/07 12:13:34;;;;;;;5.30;2.70;;;28.00;86.10;;;;;;5038368;28;20033;-76
2022/09/07 12:16:21;;;;;;;3.20;2.90;;;27.70;90.20;;;;;;5044193;28;20025;-75
2022/09/07 12:19:11;;;;;;;3.35;3.08;;;28.10;89.40;;;;;;5030655;28;20026;-75
2022/09/07 12:21:51;;;;;;;4.50;3.85;;;28.50;90.30;;;;;;5026785;28;20022;-75
2022/09/07 12:24:38;;;;;;;4.28;3.60;;;27.20;91.00;;;;;;5031295;28;20033;-75
2022/09/07 12:27:25;;;;;;;4.85;4.50;;;27.60;92.40;;;;;;5041808;28;20033;-76
2022/09/07 12:30:10;;;;;;;4.97;4.47;;;27.40;92.10;;;;;;5019759;28;20068;-76
2022/09/07 12:32:52;;;;;;;4.93;4.22;;;27.60;91.60;;;;;;5028369;28;20050;-75
2022/09/07 12:35:27;;;;;;;4.35;3.80;;;27.60;93.10;;;;;;5032714;28;20033;-75
2022/09/07 12:37:54;;;;;;;4.70;3.75;;;27.90;94.00;;;;;;5030390;28;20030;-75
2022/09/07 12:40:34;;;;;;;4.57;4.20;;;27.90;94.00;;;;;;5038751;28;20029;-75
2022/09/07 12:43:12;;;;;;;5.20;4.70;;;28.10;92.70;;;;;;5043151;28;20495;-75
2022/09/07 12:45:37;;;;;;;5.38;4.97;;;27.60;93.70;;;;;;5041685;28;20081;-75
2022/09/07 12:48:06;;;;;;;4.30;3.90;;;27.40;93.60;;;;;;5032323;28;20022;-75
2022/09/07 12:50:35;;;;;;;4.10;3.80;;;27.60;96.50;;;;;;5048548;28;20026;-76
2022/09/07 12:53:07;;;;;;;4.55;4.10;;;27.20;95.90;;;;;;5047413;28;20251;-75
2022/09/07 12:55:52;;;;;;;3.80;3.50;;;26.70;96.60;;;;;;5036663;28;20093;-76
2022/09/07 12:58:49;;;;;;;4.25;3.55;;;26.10;95.50;;;;;;5045693;28;20036;-75
2022/09/07 13:01:43;;;;;;;4.15;3.85;;;26.70;95.90;;;;;;4994221;28;20073;-76
2022/09/07 13:04:39;;;;;;;4.88;3.47;;;26.80;96.20;;;;;;5033365;28;20025;-76
2022/09/07 13:07:19;;;;;;;4.13;3.83;;;27.30;96.60;;;;;;5050356;28;20049;-76
2022/09/07 13:09:58;;;;;;;4.40;4.00;;;27.10;97.30;;;;;;5052314;28;20038;-75
2022/09/07 13:12:40;;;;;;;;;;;27.20;97.10;;;;;;5042204;28;20072;-76
2022/09/07 13:15:07;;;;;;;5.32;4.82;;;26.90;96.10;;;;;;5042104;28;19894;-76
2022/09/07 13:17:37;;;;;;;5.30;4.90;;;27.00;96.10;;;;;;5034948;28;20040;-76
2022/09/07 13:20:15;;;;;;;4.25;3.65;;;26.70;96.60;;;;;;5052564;28;20022;-76
2022/09/07 13:22:41;;;;;;;3.78;3.33;;;27.00;97.20;;;;;;5040685;28;20026;-77